Time;durP1;ratioP1;P1;durP2;ratioP2;P2;SDS_P1;SDS_P2;PMS_P1;PMS_P2;Temp;Humidity;BMP_temperature;BMP_pressure;BME280_temperature;BME280_humidity;BME280_pressure;Samples;Min_cycle;Max_cycle;Signal;HPM_P1;HPM_P2
2022/06/13 00:00:28;;;;;;;16.80;7.22;;;11.60;99.90;;;;;;5037869;28;20409;-47
2022/06/13 00:02:54;;;;;;;15.90;6.15;;;11.60;99.90;;;;;;5053989;28;20036;-48
2022/06/13 00:05:19;;;;;;;14.13;6.50;;;12.50;99.90;;;;;;5037840;28;20070;-48
2022/06/13 00:07:45;;;;;;;17.02;6.25;;;12.90;99.90;;;;;;5038487;28;20803;-46
2022/06/13 00:10:12;;;;;;;22.63;7.55;;;13.10;99.90;;;;;;5054579;28;21085;-48
2022/06/13 00:12:40;;;;;;;14.40;6.55;;;13.90;99.90;;;;;;5054610;28;20095;-47
2022/06/13 00:15:07;;;;;;;14.75;6.35;;;11.90;99.90;;;;;;5055250;28;20130;-45
2022/06/13 00:17:33;;;;;;;16.40;5.47;;;11.70;99.90;;;;;;5088632;28;20067;-47
2022/06/13 00:20:01;;;;;;;17.00;5.93;;;11.40;99.90;;;;;;5038312;28;20155;-49
2022/06/13 00:22:26;;;;;;;15.55;6.60;;;12.40;99.90;;;;;;5054951;28;20033;-48
2022/06/13 00:24:52;;;;;;;13.95;6.13;;;12.50;99.90;;;;;;5070279;28;20051;-49
2022/06/13 00:27:18;;;;;;;15.30;6.72;;;11.60;99.90;;;;;;5054729;28;20040;-49
2022/06/13 00:29:47;;;;;;;18.38;6.50;;;11.60;99.90;;;;;;5054839;28;20039;-47
2022/06/13 00:32:14;;;;;;;14.95;6.38;;;12.50;99.90;;;;;;5053535;28;20045;-46
2022/06/13 00:34:43;;;;;;;20.67;6.60;;;13.30;99.90;;;;;;5048871;28;20587;-48
2022/06/13 00:37:09;;;;;;;18.63;7.13;;;11.70;99.90;;;;;;5048883;28;20050;-48
2022/06/13 00:39:34;;;;;;;17.05;6.85;;;12.60;99.90;;;;;;5055483;28;20040;-49
2022/06/13 00:42:00;;;;;;;16.42;6.38;;;11.80;99.90;;;;;;5053564;28;20040;-49
2022/06/13 00:44:32;;;;;;;18.50;6.10;;;11.80;99.90;;;;;;5051208;28;20037;-49
2022/06/13 00:46:58;;;;;;;19.50;6.35;;;11.90;99.90;;;;;;5053068;28;20576;-48
2022/06/13 00:49:38;;;;;;;18.35;6.10;;;11.70;99.90;;;;;;5055142;28;20401;-48
2022/06/13 00:52:21;;;;;;;14.55;7.03;;;11.90;99.90;;;;;;5052548;28;20056;-49
2022/06/13 00:54:49;;;;;;;26.80;7.35;;;12.90;99.90;;;;;;5054049;28;20575;-48
2022/06/13 00:57:25;;;;;;;19.25;7.07;;;12.00;99.90;;;;;;5053781;28;20089;-49
2022/06/13 00:59:55;;;;;;;24.33;7.85;;;12.00;99.90;;;;;;5086984;28;20055;-48
2022/06/13 01:02:21;;;;;;;18.55;7.20;;;13.10;99.90;;;;;;5053174;28;20251;-45
2022/06/13 01:04:51;;;;;;;19.38;7.60;;;12.10;99.90;;;;;;5086360;28;20056;-46
2022/06/13 01:07:20;;;;;;;17.20;6.50;;;13.70;99.90;;;;;;5052181;28;20036;-45
2022/06/13 01:12:44;;;;;;;22.77;7.03;;;12.10;99.90;;;;;;5075003;28;20159;-44
2022/06/13 01:15:39;;;;;;;21.70;7.20;;;11.90;99.90;;;;;;5075667;28;20043;-48
2022/06/13 01:18:13;;;;;;;20.73;7.10;;;12.00;99.90;;;;;;5074667;28;20100;-45
2022/06/13 01:20:51;;;;;;;20.85;7.57;;;12.10;99.90;;;;;;5056565;28;20079;-47
2022/06/13 01:23:48;;;;;;;26.08;7.32;;;12.00;99.90;;;;;;5057005;28;20081;-48
2022/06/13 01:26:39;;;;;;;21.02;8.15;;;12.10;99.90;;;;;;5073525;28;20404;-47
2022/06/13 01:29:27;;;;;;;21.98;7.30;;;11.80;99.90;;;;;;5073883;28;20137;-47
2022/06/13 01:32:11;;;;;;;15.93;7.35;;;11.70;99.90;;;;;;5056368;28;20818;-45
2022/06/13 01:35:01;;;;;;;18.23;6.75;;;13.50;99.90;;;;;;5073197;28;20066;-50
2022/06/13 01:38:08;;;;;;;23.17;7.90;;;11.80;99.90;;;;;;5072937;28;20047;-47
2022/06/13 01:41:07;;;;;;;21.05;7.78;;;11.80;99.90;;;;;;5010177;28;20132;-46
2022/06/13 01:43:55;;;;;;;20.58;7.97;;;11.90;99.90;;;;;;4996527;28;20057;-47
2022/06/13 01:46:35;;;;;;;21.63;7.72;;;12.00;99.90;;;;;;4995358;28;20065;-45
2022/06/13 01:49:17;;;;;;;18.83;7.75;;;13.60;99.90;;;;;;4986274;28;20175;-47
2022/06/13 01:52:07;;;;;;;28.02;9.30;;;11.80;99.90;;;;;;5006695;28;20065;-46
2022/06/13 01:54:41;;;;;;;20.33;7.35;;;11.80;99.90;;;;;;4975388;28;20115;-47
2022/06/13 01:57:31;;;;;;;19.10;7.53;;;12.60;99.90;;;;;;5007959;28;20046;-47
2022/06/13 02:00:04;;;;;;;20.95;8.27;;;11.80;99.90;;;;;;4976285;28;20046;-47
2022/06/13 02:02:44;;;;;;;16.88;7.30;;;11.90;99.90;;;;;;4975309;28;20470;-50
2022/06/13 02:05:20;;;;;;;23.95;8.85;;;11.90;99.90;;;;;;5006928;28;20129;-49
2022/06/13 02:07:55;;;;;;;24.48;8.52;;;12.00;99.90;;;;;;4973007;28;20057;-46
2022/06/13 02:10:26;;;;;;;22.77;9.02;;;14.20;99.90;;;;;;4978823;28;20034;-46
2022/06/13 02:13:00;;;;;;;26.40;8.45;;;12.50;99.90;;;;;;5036061;28;20123;-48
2022/06/13 02:15:32;;;;;;;17.67;8.68;;;12.00;99.90;;;;;;5086197;28;20120;-47
2022/06/13 02:18:04;;;;;;;;;;;12.60;99.90;;;;;;5052143;28;20048;-48
2022/06/13 02:20:37;;;;;;;26.17;9.85;;;12.00;99.90;;;;;;5085020;28;19981;-49
2022/06/13 02:23:11;;;;;;;28.20;9.20;;;12.10;99.90;;;;;;5050695;28;20083;-47
2022/06/13 02:25:45;;;;;;;26.38;8.23;;;12.10;99.90;;;;;;5048396;28;21815;-47
2022/06/13 02:28:36;;;;;;;21.40;8.85;;;12.10;99.90;;;;;;5050034;28;20101;-49
2022/06/13 02:31:25;;;;;;;16.95;8.73;;;12.10;99.90;;;;;;5049412;28;20056;-48
2022/06/13 02:34:11;;;;;;;21.60;8.85;;;12.20;99.90;;;;;;5066063;28;20731;-44
2022/06/13 02:37:02;;;;;;;25.80;9.05;;;13.60;99.90;;;;;;5033317;28;20583;-47
2022/06/13 02:39:36;;;;;;;20.40;9.27;;;12.30;99.90;;;;;;5033555;28;20048;-46
2022/06/13 02:42:12;;;;;;;22.42;9.15;;;12.10;99.90;;;;;;5032026;28;20468;-46
2022/06/13 02:44:56;;;;;;;21.45;9.38;;;12.20;99.90;;;;;;5049422;28;20052;-44
2022/06/13 02:47:37;;;;;;;24.05;9.63;;;13.40;99.90;;;;;;5034068;28;20048;-48
2022/06/13 02:50:15;;;;;;;28.47;9.37;;;12.30;99.90;;;;;;5032427;28;20143;-47
2022/06/13 02:52:57;;;;;;;28.73;9.68;;;14.20;99.90;;;;;;5049339;28;20532;-48
2022/06/13 02:55:24;;;;;;;25.02;9.43;;;12.20;99.90;;;;;;5032395;28;20357;-47
2022/06/13 02:58:22;;;;;;;22.00;8.75;;;12.30;99.90;;;;;;5032736;28;20707;-48
2022/06/13 03:00:50;;;;;;;18.67;8.52;;;13.60;99.90;;;;;;4957064;28;20041;-48
2022/06/13 03:03:57;;;;;;;25.15;8.63;;;12.30;99.90;;;;;;4989487;28;20806;-47
2022/06/13 03:06:58;;;;;;;18.35;7.60;;;12.90;99.90;;;;;;4919516;28;20062;-48
2022/06/13 03:09:37;;;;;;;17.13;7.07;;;12.40;99.90;;;;;;4877865;29;20912;-47
2022/06/13 03:12:28;;;;;;;20.92;7.95;;;12.20;99.90;;;;;;4842041;29;20259;-48
2022/06/13 03:15:09;;;;;;;15.57;7.35;;;12.10;99.90;;;;;;4856390;29;20443;-47
2022/06/13 03:18:07;;;;;;;16.80;7.20;;;12.30;99.90;;;;;;4857264;29;20658;-47
2022/06/13 03:20:59;;;;;;;19.88;6.75;;;12.40;99.90;;;;;;4855677;29;20681;-49
2022/06/13 03:23:35;;;;;;;17.08;6.45;;;12.40;99.90;;;;;;4841440;29;20148;-47
2022/06/13 03:26:10;;;;;;;19.00;6.50;;;13.90;99.90;;;;;;4840992;29;20076;-47
2022/06/13 03:29:03;;;;;;;18.77;6.18;;;12.20;99.90;;;;;;4839412;29;20053;-44
2022/06/13 03:31:40;;;;;;;17.58;6.10;;;12.20;99.90;;;;;;4840063;29;20290;-49
2022/06/13 03:34:16;;;;;;;21.30;6.15;;;12.40;99.90;;;;;;4856243;29;20060;-45
2022/06/13 03:36:50;;;;;;;22.60;6.25;;;12.30;99.90;;;;;;4875430;29;20055;-49
2022/06/13 03:39:24;;;;;;;18.80;5.97;;;13.70;99.90;;;;;;4928580;29;20051;-46
2022/06/13 03:42:12;;;;;;;17.05;5.30;;;12.90;99.90;;;;;;4915276;29;20063;-49
2022/06/13 03:44:48;;;;;;;16.13;5.22;;;12.40;99.90;;;;;;4918623;28;20278;-49
2022/06/13 03:47:21;;;;;;;14.43;4.45;;;13.90;99.90;;;;;;5031005;28;20523;-46
2022/06/13 03:50:19;;;;;;;11.95;4.03;;;13.40;99.90;;;;;;5049298;28;20090;-48
2022/06/13 03:52:49;;;;;;;13.35;3.80;;;12.40;99.90;;;;;;5007892;28;20053;-48
2022/06/13 03:55:26;;;;;;;9.43;3.42;;;13.30;99.90;;;;;;4992062;28;20053;-48
2022/06/13 03:58:06;;;;;;;11.35;3.47;;;12.60;99.90;;;;;;4991470;28;20480;-46
2022/06/13 04:00:39;;;;;;;10.48;3.20;;;12.40;99.90;;;;;;4995543;28;20060;-47
2022/06/13 04:03:07;;;;;;;11.05;3.30;;;14.20;99.90;;;;;;4992539;28;20058;-45
2022/06/13 04:05:42;;;;;;;12.75;3.25;;;12.70;99.90;;;;;;5025756;28;20045;-47
2022/06/13 04:08:10;;;;;;;8.25;3.03;;;13.40;99.90;;;;;;4993144;28;20686;-48
2022/06/13 04:11:05;;;;;;;12.23;3.08;;;14.20;99.90;;;;;;4992005;28;20104;-46
2022/06/13 04:14:32;;;;;;;9.75;3.00;;;12.70;99.90;;;;;;5009553;28;20041;-48
2022/06/13 04:17:09;;;;;;;15.55;3.38;;;12.80;99.90;;;;;;4933094;28;20457;-49
2022/06/13 04:19:54;;;;;;;12.18;2.88;;;12.70;99.90;;;;;;4915060;28;20055;-50
2022/06/13 04:22:49;;;;;;;13.73;3.10;;;12.90;99.90;;;;;;4918962;28;20111;-49
2022/06/13 04:25:36;;;;;;;11.75;2.60;;;12.90;99.90;;;;;;4925005;28;20042;-48
2022/06/13 04:28:05;;;;;;;10.00;2.78;;;12.80;99.90;;;;;;4919895;28;20079;-46
2022/06/13 04:30:34;;;;;;;12.75;2.75;;;14.90;99.90;;;;;;4919976;29;20051;-46
2022/06/13 04:33:42;;;;;;;12.23;3.53;;;13.40;99.90;;;;;;4918886;29;20063;-48
2022/06/13 04:36:11;;;;;;;9.13;2.75;;;12.80;99.90;;;;;;4974044;28;20062;-45
2022/06/13 04:38:43;;;;;;;10.85;2.53;;;15.00;99.90;;;;;;4956174;28;20073;-46
2022/06/13 04:41:10;;;;;;;10.50;2.25;;;14.30;99.90;;;;;;4956261;28;20073;-45
2022/06/13 04:43:41;;;;;;;9.73;2.10;;;12.90;99.90;;;;;;4952292;28;20129;-49
2022/06/13 04:46:12;;;;;;;10.05;2.65;;;13.00;99.90;;;;;;4973320;28;20058;-46
2022/06/13 04:48:39;;;;;;;10.57;2.50;;;13.50;99.90;;;;;;4989149;28;20533;-48
2022/06/13 04:51:14;;;;;;;7.72;2.35;;;13.20;99.90;;;;;;4992796;28;20442;-49
2022/06/13 04:53:55;;;;;;;9.65;3.10;;;13.20;99.90;;;;;;5002759;28;20383;-48
2022/06/13 04:56:22;;;;;;;9.50;2.58;;;13.20;99.90;;;;;;5010987;28;20465;-44
2022/06/13 04:58:50;;;;;;;10.32;2.78;;;13.10;99.90;;;;;;4995433;28;20042;-49
2022/06/13 05:01:34;;;;;;;10.93;1.60;;;14.00;99.90;;;;;;5028771;28;20057;-43
2022/06/13 05:04:03;;;;;;;6.40;1.30;;;12.80;99.90;;;;;;5026806;28;20041;-43
2022/06/13 05:06:42;;;;;;;5.18;0.93;;;12.50;99.90;;;;;;5011629;28;20049;-47
2022/06/13 05:09:08;;;;;;;4.05;1.10;;;14.00;99.90;;;;;;5027398;28;20046;-45
2022/06/13 05:12:12;;;;;;;2.15;0.90;;;13.10;99.90;;;;;;5013786;28;20041;-46
2022/06/13 05:15:09;;;;;;;7.03;1.10;;;13.10;99.90;;;;;;5051973;28;20139;-44
2022/06/13 05:17:49;;;;;;;4.20;0.80;;;12.30;99.90;;;;;;5052016;28;20041;-43
2022/06/13 05:20:38;;;;;;;7.45;1.38;;;12.20;99.90;;;;;;5054136;28;20409;-45
2022/06/13 05:23:42;;;;;;;3.67;1.00;;;12.30;99.90;;;;;;5052546;28;20528;-46
2022/06/13 05:26:09;;;;;;;3.75;1.10;;;12.20;99.90;;;;;;5035315;28;20520;-43
2022/06/13 05:28:36;;;;;;;3.97;0.93;;;12.20;99.90;;;;;;5085796;28;20431;-44
2022/06/13 05:31:19;;;;;;;7.00;1.25;;;12.30;99.90;;;;;;5045159;28;20048;-42
2022/06/13 05:33:47;;;;;;;3.53;1.13;;;12.40;99.90;;;;;;5083788;28;20037;-45
2022/06/13 05:36:19;;;;;;;4.40;1.02;;;12.40;99.90;;;;;;5051297;28;20085;-45
2022/06/13 05:38:52;;;;;;;6.32;1.27;;;13.50;99.90;;;;;;5051374;28;20524;-43
2022/06/13 05:41:19;;;;;;;5.05;1.33;;;12.70;99.90;;;;;;5049074;28;20075;-45
2022/06/13 05:43:45;;;;;;;3.20;0.98;;;14.00;99.90;;;;;;5052390;28;20493;-47
2022/06/13 05:46:17;;;;;;;4.68;1.10;;;15.30;99.90;;;;;;5036212;28;20050;-47
2022/06/13 05:48:43;;;;;;;;;;;13.30;99.90;;;;;;5054011;28;20068;-43
2022/06/13 05:51:09;;;;;;;5.55;1.35;;;13.70;99.90;;;;;;5051835;28;19985;-43
2022/06/13 05:53:34;;;;;;;5.35;1.13;;;13.30;99.90;;;;;;5051515;28;20049;-44
2022/06/13 05:56:02;;;;;;;8.47;1.20;;;13.50;99.90;;;;;;5052710;28;20048;-43
2022/06/13 05:58:28;;;;;;;3.78;1.08;;;13.70;99.90;;;;;;5035075;28;20043;-44
2022/06/13 06:01:01;;;;;;;4.53;1.20;;;13.80;99.90;;;;;;5053196;28;20040;-44
2022/06/13 06:03:28;;;;;;;4.25;1.10;;;14.80;99.90;;;;;;5052359;28;20064;-46
2022/06/13 06:05:55;;;;;;;7.43;1.65;;;14.10;99.90;;;;;;5035238;28;20049;-43
2022/06/13 06:08:24;;;;;;;6.10;1.38;;;14.30;99.90;;;;;;5051865;28;20505;-45
2022/06/13 06:10:52;;;;;;;7.00;1.20;;;14.20;99.90;;;;;;5052165;28;20048;-48
2022/06/13 06:13:20;;;;;;;4.82;1.02;;;15.20;99.90;;;;;;5050777;28;20040;-47
2022/06/13 06:15:47;;;;;;;5.85;1.40;;;15.00;99.90;;;;;;5051075;28;20158;-47
2022/06/13 06:18:14;;;;;;;7.18;1.30;;;15.50;99.90;;;;;;5034290;28;20079;-44
2022/06/13 06:20:40;;;;;;;6.13;1.20;;;16.30;99.90;;;;;;5049973;28;20049;-48
2022/06/13 06:23:08;;;;;;;4.75;1.17;;;16.00;99.90;;;;;;5032975;28;20037;-43
2022/06/13 06:25:34;;;;;;;7.97;1.60;;;15.90;99.90;;;;;;5049750;28;20055;-46
2022/06/13 06:28:01;;;;;;;7.45;1.30;;;17.50;99.90;;;;;;5048442;28;20052;-48
2022/06/13 06:30:29;;;;;;;5.78;1.35;;;15.40;99.90;;;;;;5033039;28;20033;-47
2022/06/13 06:32:55;;;;;;;4.43;1.27;;;15.20;99.90;;;;;;5051159;28;20621;-48
2022/06/13 06:35:23;;;;;;;7.35;1.58;;;15.20;99.90;;;;;;5050616;28;20067;-48
2022/06/13 06:37:52;;;;;;;6.90;1.48;;;15.50;99.90;;;;;;5051073;28;20090;-47
2022/06/13 06:40:20;;;;;;;5.30;1.27;;;15.40;99.90;;;;;;5051645;28;20094;-49
2022/06/13 06:42:46;;;;;;;7.70;1.50;;;17.50;99.90;;;;;;5034983;28;20052;-47
2022/06/13 06:45:12;;;;;;;6.18;1.40;;;15.80;99.90;;;;;;5050507;28;20041;-48
2022/06/13 06:47:42;;;;;;;7.47;1.38;;;17.20;99.90;;;;;;5051001;28;20047;-48
2022/06/13 06:50:17;;;;;;;7.43;1.42;;;15.50;99.90;;;;;;5049929;28;20049;-44
2022/06/13 06:52:43;;;;;;;9.38;1.45;;;15.90;99.90;;;;;;5084636;28;20044;-48
2022/06/13 07:00:45;;;;;;;8.10;1.60;;;17.60;99.90;;;;;;5085495;28;20138;-44
2022/06/13 07:03:12;;;;;;;6.18;1.42;;;15.70;99.90;;;;;;5049995;28;20478;-47
2022/06/13 07:05:37;;;;;;;8.57;2.05;;;17.50;99.90;;;;;;5050265;28;20397;-48
2022/06/13 07:08:03;;;;;;;6.30;1.50;;;15.70;99.90;;;;;;5052607;28;20033;-46
2022/06/13 07:10:31;;;;;;;8.15;1.40;;;15.00;99.90;;;;;;5050457;28;20044;-49
2022/06/13 07:12:57;;;;;;;13.75;2.35;;;16.90;99.90;;;;;;5050909;28;20464;-45
2022/06/13 07:15:22;;;;;;;8.32;1.50;;;16.70;99.90;;;;;;5051277;28;20036;-48
2022/06/13 07:17:48;;;;;;;6.65;1.30;;;17.70;99.90;;;;;;5052419;28;20055;-49
2022/06/13 07:20:14;;;;;;;9.05;1.35;;;18.50;99.90;;;;;;5051956;28;20178;-49
2022/06/13 07:22:51;;;;;;;10.00;2.25;;;18.80;99.90;;;;;;5050142;28;20599;-47
2022/06/13 07:25:22;;;;;;;7.68;1.38;;;18.40;99.90;;;;;;5050559;28;20079;-47
2022/06/13 07:27:47;;;;;;;11.05;1.58;;;17.80;99.90;;;;;;5050904;28;20387;-48
2022/06/13 07:30:15;;;;;;;9.27;1.90;;;17.00;99.90;;;;;;5033992;28;20040;-49
2022/06/13 07:32:41;;;;;;;9.40;1.67;;;14.70;99.90;;;;;;5049521;28;20068;-46
2022/06/13 07:35:08;;;;;;;6.85;1.70;;;17.50;99.90;;;;;;5049505;28;20092;-44
2022/06/13 07:40:21;;;;;;;8.45;1.63;;;22.50;99.90;;;;;;5050517;28;20589;-46
2022/06/13 07:42:53;;;;;;;8.98;1.50;;;22.10;99.90;;;;;;5047587;28;20040;-46
2022/06/13 07:45:24;;;;;;;5.72;1.15;;;22.80;99.90;;;;;;5031506;28;20106;-49
2022/06/13 07:47:51;;;;;;;8.20;1.45;;;22.30;99.90;;;;;;5050115;28;20089;-45
2022/06/13 07:50:20;;;;;;;9.85;1.60;;;20.70;99.90;;;;;;5049147;28;20048;-45
2022/06/13 07:52:49;;;;;;;3.72;0.90;;;19.60;99.90;;;;;;5048364;28;20053;-45
2022/06/13 07:55:16;;;;;;;6.43;1.70;;;18.70;99.90;;;;;;5049130;28;20426;-46
2022/06/13 07:57:43;;;;;;;7.07;1.60;;;19.00;99.90;;;;;;5051436;28;20413;-44
2022/06/13 08:00:12;;;;;;;6.03;1.17;;;20.00;99.90;;;;;;5052220;28;20203;-47
2022/06/13 08:02:39;;;;;;;3.35;0.75;;;21.20;99.90;;;;;;5086649;28;20029;-48
2022/06/13 08:05:05;;;;;;;5.35;0.75;;;21.70;99.90;;;;;;5051988;28;20143;-46
2022/06/13 08:07:31;;;;;;;5.63;1.00;;;21.40;99.90;;;;;;5052625;28;20151;-43
2022/06/13 08:09:58;;;;;;;6.50;1.20;;;21.60;99.90;;;;;;5051115;28;20048;-48
2022/06/13 08:12:25;;;;;;;4.30;0.95;;;22.70;99.90;;;;;;5051925;28;20156;-47
2022/06/13 08:14:51;;;;;;;6.50;1.00;;;23.10;99.90;;;;;;5054972;28;20052;-44
2022/06/13 08:17:19;;;;;;;3.78;0.80;;;23.30;99.90;;;;;;5037448;28;20513;-47
2022/06/13 08:19:46;;;;;;;5.60;1.00;;;24.30;99.90;;;;;;5085909;28;20076;-49
2022/06/13 08:22:14;;;;;;;7.38;1.10;;;23.00;99.90;;;;;;5053492;28;20041;-45
2022/06/13 08:24:40;;;;;;;6.35;1.02;;;23.30;99.90;;;;;;5036722;28;20052;-49
2022/06/13 08:27:10;;;;;;;6.65;1.50;;;23.70;99.90;;;;;;5054530;28;20717;-50
2022/06/13 08:29:35;;;;;;;6.32;1.40;;;23.60;99.90;;;;;;5053747;28;20122;-44
2022/06/13 08:32:01;;;;;;;6.72;1.40;;;23.90;99.90;;;;;;5053990;28;20053;-44
2022/06/13 08:34:30;;;;;;;5.53;0.90;;;23.00;99.90;;;;;;5053966;28;20132;-44
2022/06/13 08:36:56;;;;;;;4.60;1.10;;;22.40;99.90;;;;;;5085745;28;20057;-44
2022/06/13 08:39:23;;;;;;;4.88;1.10;;;24.10;99.90;;;;;;5053019;28;20059;-48
2022/06/13 08:42:05;;;;;;;6.72;1.23;;;22.80;99.90;;;;;;5031671;28;20047;-48
2022/06/13 08:44:52;;;;;;;8.60;1.42;;;22.60;99.80;;;;;;5052286;28;20312;-48
2022/06/13 08:47:56;;;;;;;5.78;1.20;;;22.20;99.90;;;;;;5086577;28;20421;-46
2022/06/13 08:50:44;;;;;;;11.38;1.50;;;22.30;99.90;;;;;;5010920;28;20136;-48
2022/06/13 08:53:13;;;;;;;5.25;1.13;;;22.60;99.90;;;;;;5009883;28;20071;-47
2022/06/13 08:55:47;;;;;;;5.80;1.35;;;22.80;99.90;;;;;;5011882;28;20195;-44
2022/06/13 08:58:41;;;;;;;6.85;1.40;;;23.00;99.90;;;;;;5014502;28;20049;-46
2022/06/13 09:01:32;;;;;;;7.43;1.75;;;21.80;99.90;;;;;;5009361;28;20071;-47
2022/06/13 09:04:24;;;;;;;7.07;1.50;;;21.00;99.90;;;;;;4993911;28;20136;-52
2022/06/13 09:07:00;;;;;;;6.65;1.30;;;19.90;99.90;;;;;;5012426;28;20211;-44
2022/06/13 09:09:52;;;;;;;6.25;1.42;;;19.60;99.90;;;;;;5013010;28;20057;-45
2022/06/13 09:12:20;;;;;;;;;;;20.10;99.90;;;;;;4952033;28;20058;-47
2022/06/13 09:15:17;;;;;;;9.57;1.80;;;19.60;99.90;;;;;;4936911;28;19926;-45
2022/06/13 09:17:51;;;;;;;7.30;1.20;;;18.50;99.90;;;;;;4874815;29;20056;-44
2022/06/13 09:20:35;;;;;;;7.78;1.50;;;18.00;99.90;;;;;;4875822;29;20557;-47
2022/06/13 09:23:21;;;;;;;9.43;1.42;;;17.60;99.90;;;;;;4892347;29;21071;-48
2022/06/13 09:26:03;;;;;;;9.95;1.88;;;17.60;99.90;;;;;;4868810;29;20052;-45
2022/06/13 09:28:43;;;;;;;13.80;2.03;;;17.90;99.90;;;;;;4911232;29;20063;-48
2022/06/13 09:31:16;;;;;;;9.75;1.80;;;19.20;99.90;;;;;;4910591;29;20052;-45
2022/06/13 09:34:04;;;;;;;9.35;1.67;;;17.50;99.90;;;;;;4896744;29;20075;-47
2022/06/13 09:36:33;;;;;;;12.02;2.00;;;18.50;99.90;;;;;;4911386;29;20088;-47
2022/06/13 09:39:12;;;;;;;9.65;1.50;;;16.90;99.90;;;;;;4880007;29;20071;-47
2022/06/13 09:42:06;;;;;;;10.30;1.60;;;16.30;99.90;;;;;;4895926;29;20063;-47
2022/06/13 09:44:56;;;;;;;7.78;1.95;;;16.20;99.90;;;;;;4875086;29;20060;-43
2022/06/13 09:48:06;;;;;;;8.98;1.30;;;16.30;99.90;;;;;;4873135;29;20048;-45
2022/06/13 09:50:38;;;;;;;10.38;1.73;;;16.60;99.90;;;;;;4860533;29;20108;-48
2022/06/13 09:53:30;;;;;;;8.02;1.48;;;17.00;99.90;;;;;;4882349;28;20489;-44
2022/06/13 09:56:09;;;;;;;9.55;1.58;;;16.50;99.90;;;;;;4899883;29;20048;-46
2022/06/13 09:59:00;;;;;;;8.77;1.60;;;16.40;99.90;;;;;;4919280;29;20063;-44
2022/06/13 10:01:28;;;;;;;8.60;1.50;;;16.60;99.90;;;;;;4894807;29;20072;-45
2022/06/13 10:04:12;;;;;;;7.30;1.60;;;17.00;99.90;;;;;;4878135;29;20040;-48
2022/06/13 10:07:01;;;;;;;9.90;1.52;;;17.60;99.90;;;;;;4880314;29;21223;-47
2022/06/13 10:09:39;;;;;;;10.98;1.98;;;18.00;99.90;;;;;;4911367;29;20245;-44
2022/06/13 10:12:42;;;;;;;17.27;2.70;;;18.20;99.90;;;;;;4916883;29;20076;-44
2022/06/13 10:15:30;;;;;;;8.65;1.58;;;18.40;99.90;;;;;;4911074;29;20056;-44
2022/06/13 10:18:10;;;;;;;10.77;2.13;;;19.00;99.90;;;;;;4894836;29;20056;-48
2022/06/13 10:20:58;;;;;;;9.15;2.13;;;18.80;99.90;;;;;;4917594;29;20127;-45
2022/06/13 10:23:38;;;;;;;8.30;1.60;;;18.70;99.90;;;;;;4882902;29;20063;-47
2022/06/13 10:26:42;;;;;;;8.75;1.70;;;18.80;99.90;;;;;;4884612;28;20056;-45
2022/06/13 10:29:26;;;;;;;8.50;1.50;;;19.00;99.90;;;;;;4953755;28;20057;-44
2022/06/13 10:32:24;;;;;;;9.68;2.05;;;19.20;99.90;;;;;;4975058;28;20105;-48
2022/06/13 10:34:59;;;;;;;10.15;1.60;;;19.60;99.90;;;;;;5032281;28;20102;-44
2022/06/13 10:37:43;;;;;;;7.10;1.20;;;19.60;99.90;;;;;;5050911;28;20444;-44
2022/06/13 10:40:10;;;;;;;8.55;1.40;;;19.30;99.90;;;;;;5083719;28;20037;-47
2022/06/13 10:42:38;;;;;;;8.98;1.80;;;18.70;99.90;;;;;;5049813;28;20090;-47
2022/06/13 10:45:07;;;;;;;8.18;1.80;;;19.60;99.90;;;;;;5083490;28;20055;-44
2022/06/13 10:47:39;;;;;;;8.18;2.00;;;18.90;99.90;;;;;;5084813;28;20044;-44
2022/06/13 10:50:08;;;;;;;7.15;1.25;;;20.10;99.90;;;;;;5084422;28;20041;-45
2022/06/13 10:52:40;;;;;;;7.40;1.73;;;19.10;99.90;;;;;;5049688;28;20742;-43
2022/06/13 10:55:09;;;;;;;9.38;1.85;;;19.30;99.90;;;;;;5049177;28;20045;-44
2022/06/13 10:57:47;;;;;;;9.95;1.50;;;18.30;99.90;;;;;;5047298;28;20083;-45
2022/06/13 11:00:22;;;;;;;6.47;1.50;;;18.20;99.90;;;;;;5049096;28;20048;-49
2022/06/13 11:02:51;;;;;;;7.95;1.70;;;18.30;99.90;;;;;;5032546;28;21316;-45
2022/06/13 11:05:25;;;;;;;10.05;1.85;;;20.40;99.90;;;;;;5084003;28;20067;-44
2022/06/13 11:07:55;;;;;;;10.13;2.58;;;18.30;99.90;;;;;;5050267;28;20102;-43
2022/06/13 11:10:39;;;;;;;9.38;1.70;;;18.70;99.90;;;;;;5030696;28;20036;-48
2022/06/13 11:13:13;;;;;;;9.13;1.55;;;18.30;99.90;;;;;;5052068;28;20467;-48
2022/06/13 11:25:00;;;;;;;9.40;1.65;;;18.80;99.90;;;;;;5048930;28;20067;-46
2022/06/13 11:27:40;;;;;;;11.18;1.27;;;18.60;99.90;;;;;;5048052;28;20099;-45
2022/06/13 11:30:28;;;;;;;11.45;1.92;;;20.40;99.90;;;;;;5032558;28;21223;-43
2022/06/13 11:33:03;;;;;;;6.47;1.70;;;20.20;99.90;;;;;;5035381;28;20098;-46
2022/06/13 11:35:49;;;;;;;8.43;1.50;;;17.80;99.90;;;;;;5034127;28;20497;-43
2022/06/13 11:38:22;;;;;;;7.32;1.20;;;17.80;99.90;;;;;;5033642;28;20377;-45
2022/06/13 11:41:23;;;;;;;6.47;1.40;;;18.10;99.90;;;;;;5035509;28;20346;-45
2022/06/13 11:44:07;;;;;;;8.48;1.77;;;18.70;99.90;;;;;;4955921;28;20050;-46
2022/06/13 11:46:42;;;;;;;11.45;1.90;;;19.20;99.90;;;;;;4971332;28;20940;-49
2022/06/13 11:49:16;;;;;;;8.88;1.40;;;19.60;99.90;;;;;;4940792;28;20120;-46
2022/06/13 11:51:48;;;;;;;7.95;1.25;;;20.00;99.90;;;;;;4988897;28;20054;-49
2022/06/13 11:54:39;;;;;;;6.50;1.30;;;20.20;99.90;;;;;;4970684;28;20046;-44
2022/06/13 11:57:14;;;;;;;8.27;1.75;;;20.10;99.90;;;;;;4952488;28;20169;-45
2022/06/13 11:59:49;;;;;;;7.32;1.30;;;19.40;99.90;;;;;;4936193;28;20750;-45
2022/06/13 12:02:25;;;;;;;9.13;1.80;;;19.30;99.90;;;;;;4953900;28;20063;-46
2022/06/13 12:04:55;;;;;;;7.75;1.42;;;19.20;99.90;;;;;;4940672;28;20355;-46
2022/06/13 12:07:27;;;;;;;8.20;1.73;;;18.90;99.90;;;;;;4917274;29;20047;-45
2022/06/13 12:09:56;;;;;;;7.47;2.05;;;18.70;99.90;;;;;;4933752;29;20094;-44
2022/06/13 12:12:24;;;;;;;4.70;1.08;;;19.10;99.90;;;;;;4933666;29;20043;-46
2022/06/13 12:14:50;;;;;;;6.78;1.15;;;19.30;99.90;;;;;;4933100;29;20453;-44
2022/06/13 12:17:30;;;;;;;8.40;1.50;;;19.30;99.90;;;;;;4901788;29;20050;-45
2022/06/13 12:20:04;;;;;;;6.75;1.20;;;19.20;99.90;;;;;;4912352;28;20054;-44
2022/06/13 12:23:05;;;;;;;7.40;1.27;;;19.50;99.90;;;;;;4974105;28;20058;-45
2022/06/13 12:25:58;;;;;;;8.65;1.52;;;19.30;99.90;;;;;;4938548;28;20060;-47
2022/06/13 12:28:31;;;;;;;7.90;1.98;;;19.00;99.90;;;;;;4894249;29;20052;-46
2022/06/13 12:31:11;;;;;;;10.38;1.60;;;20.10;99.90;;;;;;4895816;29;21058;-44
2022/06/13 12:34:09;;;;;;;10.13;1.70;;;18.60;99.90;;;;;;4888558;29;20418;-49
2022/06/13 12:36:49;;;;;;;16.10;1.92;;;18.50;99.90;;;;;;4860103;29;20154;-45
2022/06/13 12:40:01;;;;;;;9.60;1.52;;;18.40;99.90;;;;;;4861037;29;20160;-46
2022/06/13 12:42:39;;;;;;;11.65;2.28;;;18.40;99.90;;;;;;4877601;29;20045;-47
2022/06/13 12:45:16;;;;;;;8.63;1.38;;;18.50;99.90;;;;;;4873296;29;20067;-45
2022/06/13 12:47:59;;;;;;;8.43;1.58;;;18.80;99.90;;;;;;4880551;29;20056;-45
2022/06/13 12:51:06;;;;;;;9.27;1.40;;;17.80;99.90;;;;;;4877605;29;20044;-44
2022/06/13 12:53:55;;;;;;;6.97;1.40;;;18.00;99.90;;;;;;4881948;29;20052;-44
2022/06/13 12:56:25;;;;;;;8.07;1.73;;;18.10;99.90;;;;;;4918328;29;20394;-45
2022/06/13 12:59:24;;;;;;;9.07;1.65;;;18.10;99.90;;;;;;4916477;29;20776;-44
2022/06/13 13:01:52;;;;;;;9.48;1.55;;;18.20;99.90;;;;;;4936385;28;20050;-44
2022/06/13 13:04:23;;;;;;;6.18;1.20;;;18.20;99.90;;;;;;4936067;28;20074;-46
2022/06/13 13:07:07;;;;;;;6.47;1.20;;;18.00;99.90;;;;;;4943395;28;20077;-43
2022/06/13 13:09:41;;;;;;;9.55;1.30;;;17.80;99.90;;;;;;4974976;28;20293;-50
2022/06/13 13:12:42;;;;;;;6.53;1.33;;;17.80;99.90;;;;;;4974534;28;20062;-46
2022/06/13 13:15:33;;;;;;;6.40;1.63;;;19.50;99.90;;;;;;4991267;28;20046;-47
2022/06/13 13:18:08;;;;;;;8.30;1.17;;;17.10;99.90;;;;;;4956682;28;20057;-44
2022/06/13 13:20:58;;;;;;;8.07;1.30;;;17.00;99.90;;;;;;5028052;28;20487;-45
2022/06/13 13:23:50;;;;;;;6.45;1.15;;;17.20;99.90;;;;;;5031662;28;20045;-48
2022/06/13 13:26:22;;;;;;;5.78;0.90;;;16.80;99.90;;;;;;4977681;28;20333;-47
2022/06/13 13:29:01;;;;;;;10.38;1.35;;;16.60;99.90;;;;;;4994238;28;20065;-46
2022/06/13 13:31:43;;;;;;;7.32;1.50;;;16.80;99.90;;;;;;4992497;28;20091;-46
2022/06/13 13:34:32;;;;;;;7.10;1.15;;;18.80;99.90;;;;;;4992747;28;20664;-46
2022/06/13 13:37:19;;;;;;;8.48;1.17;;;16.50;99.90;;;;;;4993683;28;20045;-44
2022/06/13 13:40:03;;;;;;;6.53;1.23;;;18.90;99.90;;;;;;4991788;28;20043;-46
2022/06/13 13:43:05;;;;;;;10.98;1.40;;;15.20;99.90;;;;;;4992500;28;20037;-45
2022/06/13 13:45:34;;;;;;;7.93;1.02;;;17.50;99.90;;;;;;4970405;28;20049;-44
2022/06/13 13:48:19;;;;;;;11.57;1.40;;;17.90;99.90;;;;;;4969782;28;20643;-45
2022/06/13 13:51:03;;;;;;;5.85;1.02;;;17.80;99.90;;;;;;4954719;28;20408;-48
2022/06/13 13:53:39;;;;;;;7.85;1.13;;;17.80;99.90;;;;;;4971464;28;20050;-48